sensor_id;sensor_type;location;lat;lon;timestamp;P1;durP1;ratioP1;P2;durP2;ratioP2
3755;SDS011;1893;52.526;13.360;2022-12-13T00:01:26;22.90;;;10.50;;
3755;SDS011;1893;52.526;13.360;2022-12-13T00:03:54;23.17;;;10.63;;
3755;SDS011;1893;52.526;13.360;2022-12-13T00:06:21;21.83;;;10.95;;
3755;SDS011;1893;52.526;13.360;2022-12-13T00:08:47;18.67;;;10.33;;
3755;SDS011;1893;52.526;13.360;2022-12-13T00:11:13;21.67;;;11.55;;
3755;SDS011;1893;52.526;13.360;2022-12-13T00:13:39;19.93;;;10.83;;
3755;SDS011;1893;52.526;13.360;2022-12-13T00:16:06;20.48;;;11.10;;
3755;SDS011;1893;52.526;13.360;2022-12-13T00:18:37;24.60;;;11.27;;
3755;SDS011;1893;52.526;13.360;2022-12-13T00:21:03;22.53;;;10.70;;
3755;SDS011;1893;52.526;13.360;2022-12-13T00:23:30;17.38;;;10.40;;
3755;SDS011;1893;52.526;13.360;2022-12-13T00:26:00;23.43;;;10.77;;
3755;SDS011;1893;52.526;13.360;2022-12-13T00:28:30;18.77;;;10.20;;
3755;SDS011;1893;52.526;13.360;2022-12-13T00:30:59;21.80;;;10.35;;
3755;SDS011;1893;52.526;13.360;2022-12-13T00:33:25;23.92;;;11.93;;
3755;SDS011;1893;52.526;13.360;2022-12-13T00:35:51;22.00;;;10.20;;
3755;SDS011;1893;52.526;13.360;2022-12-13T00:38:18;18.80;;;9.40;;
3755;SDS011;1893;52.526;13.360;2022-12-13T00:40:44;25.00;;;11.27;;
3755;SDS011;1893;52.526;13.360;2022-12-13T00:43:09;23.40;;;10.53;;
3755;SDS011;1893;52.526;13.360;2022-12-13T00:45:35;21.20;;;11.43;;
3755;SDS011;1893;52.526;13.360;2022-12-13T00:48:02;21.25;;;11.10;;
3755;SDS011;1893;52.526;13.360;2022-12-13T00:50:28;20.45;;;11.20;;
3755;SDS011;1893;52.526;13.360;2022-12-13T00:52:54;21.37;;;10.97;;
3755;SDS011;1893;52.526;13.360;2022-12-13T00:55:19;19.07;;;9.90;;
3755;SDS011;1893;52.526;13.360;2022-12-13T00:57:45;20.87;;;8.90;;
3755;SDS011;1893;52.526;13.360;2022-12-13T01:00:11;17.70;;;9.80;;
3755;SDS011;1893;52.526;13.360;2022-12-13T01:02:36;19.90;;;9.47;;
3755;SDS011;1893;52.526;13.360;2022-12-13T01:05:02;19.97;;;11.00;;
3755;SDS011;1893;52.526;13.360;2022-12-13T01:07:28;21.43;;;10.80;;
3755;SDS011;1893;52.526;13.360;2022-12-13T01:09:56;17.37;;;9.20;;
3755;SDS011;1893;52.526;13.360;2022-12-13T01:12:22;14.07;;;8.18;;
3755;SDS011;1893;52.526;13.360;2022-12-13T01:14:48;14.37;;;6.67;;
3755;SDS011;1893;52.526;13.360;2022-12-13T01:17:13;23.53;;;9.00;;
3755;SDS011;1893;52.526;13.360;2022-12-13T01:19:39;15.20;;;8.10;;
3755;SDS011;1893;52.526;13.360;2022-12-13T01:22:05;13.60;;;6.80;;
3755;SDS011;1893;52.526;13.360;2022-12-13T01:24:31;15.18;;;7.70;;
3755;SDS011;1893;52.526;13.360;2022-12-13T01:26:57;16.70;;;8.33;;
3755;SDS011;1893;52.526;13.360;2022-12-13T01:29:23;16.23;;;7.60;;
3755;SDS011;1893;52.526;13.360;2022-12-13T01:31:50;16.50;;;8.45;;
3755;SDS011;1893;52.526;13.360;2022-12-13T01:34:17;16.30;;;8.50;;
3755;SDS011;1893;52.526;13.360;2022-12-13T01:36:44;20.73;;;8.95;;
3755;SDS011;1893;52.526;13.360;2022-12-13T01:39:14;13.85;;;9.75;;
3755;SDS011;1893;52.526;13.360;2022-12-13T01:41:51;19.13;;;9.73;;
3755;SDS011;1893;52.526;13.360;2022-12-13T01:47:23;19.88;;;10.20;;
3755;SDS011;1893;52.526;13.360;2022-12-13T01:49:57;25.15;;;11.63;;
3755;SDS011;1893;52.526;13.360;2022-12-13T01:52:24;19.60;;;9.82;;
3755;SDS011;1893;52.526;13.360;2022-12-13T01:54:52;20.75;;;10.18;;
3755;SDS011;1893;52.526;13.360;2022-12-13T01:57:21;19.23;;;10.57;;
3755;SDS011;1893;52.526;13.360;2022-12-13T01:59:48;13.65;;;9.00;;
3755;SDS011;1893;52.526;13.360;2022-12-13T02:02:15;25.73;;;10.55;;
3755;SDS011;1893;52.526;13.360;2022-12-13T02:07:23;22.17;;;10.10;;
3755;SDS011;1893;52.526;13.360;2022-12-13T02:09:52;20.63;;;11.95;;
3755;SDS011;1893;52.526;13.360;2022-12-13T02:12:21;19.50;;;9.40;;
3755;SDS011;1893;52.526;13.360;2022-12-13T02:14:48;23.45;;;9.90;;
3755;SDS011;1893;52.526;13.360;2022-12-13T02:17:18;19.98;;;9.65;;
3755;SDS011;1893;52.526;13.360;2022-12-13T02:23:01;23.65;;;9.38;;
3755;SDS011;1893;52.526;13.360;2022-12-13T02:31:16;25.67;;;11.77;;
3755;SDS011;1893;52.526;13.360;2022-12-13T02:34:20;20.13;;;10.55;;
3755;SDS011;1893;52.526;13.360;2022-12-13T02:40:11;24.45;;;11.20;;
3755;SDS011;1893;52.526;13.360;2022-12-13T02:43:31;23.92;;;10.85;;
3755;SDS011;1893;52.526;13.360;2022-12-13T02:48:21;20.63;;;11.20;;
3755;SDS011;1893;52.526;13.360;2022-12-13T02:50:57;22.45;;;11.07;;
3755;SDS011;1893;52.526;13.360;2022-12-13T02:53:24;27.25;;;10.75;;
3755;SDS011;1893;52.526;13.360;2022-12-13T02:55:51;22.40;;;11.18;;
3755;SDS011;1893;52.526;13.360;2022-12-13T02:58:21;22.50;;;11.80;;
3755;SDS011;1893;52.526;13.360;2022-12-13T03:00:56;20.80;;;11.30;;
3755;SDS011;1893;52.526;13.360;2022-12-13T03:03:43;19.33;;;11.48;;
3755;SDS011;1893;52.526;13.360;2022-12-13T03:14:48;24.55;;;12.43;;
3755;SDS011;1893;52.526;13.360;2022-12-13T03:17:23;22.58;;;10.35;;
3755;SDS011;1893;52.526;13.360;2022-12-13T03:19:50;24.55;;;11.10;;
3755;SDS011;1893;52.526;13.360;2022-12-13T03:22:17;24.38;;;11.77;;
3755;SDS011;1893;52.526;13.360;2022-12-13T03:24:43;26.25;;;12.10;;
3755;SDS011;1893;52.526;13.360;2022-12-13T03:27:09;20.73;;;11.02;;
3755;SDS011;1893;52.526;13.360;2022-12-13T03:29:35;24.38;;;12.75;;
3755;SDS011;1893;52.526;13.360;2022-12-13T03:32:01;22.90;;;11.50;;
3755;SDS011;1893;52.526;13.360;2022-12-13T03:34:27;24.77;;;12.25;;
3755;SDS011;1893;52.526;13.360;2022-12-13T03:36:53;26.33;;;12.83;;
3755;SDS011;1893;52.526;13.360;2022-12-13T03:39:18;27.20;;;14.20;;
3755;SDS011;1893;52.526;13.360;2022-12-13T03:41:45;24.98;;;11.70;;
3755;SDS011;1893;52.526;13.360;2022-12-13T03:44:10;29.70;;;12.90;;
3755;SDS011;1893;52.526;13.360;2022-12-13T03:46:36;29.50;;;13.23;;
3755;SDS011;1893;52.526;13.360;2022-12-13T03:49:02;23.23;;;10.50;;
3755;SDS011;1893;52.526;13.360;2022-12-13T03:51:27;24.43;;;12.37;;
3755;SDS011;1893;52.526;13.360;2022-12-13T03:53:53;26.10;;;11.50;;
3755;SDS011;1893;52.526;13.360;2022-12-13T03:56:18;20.60;;;10.40;;
3755;SDS011;1893;52.526;13.360;2022-12-13T03:58:44;21.40;;;12.00;;
3755;SDS011;1893;52.526;13.360;2022-12-13T04:01:11;19.77;;;10.57;;
3755;SDS011;1893;52.526;13.360;2022-12-13T04:03:39;23.58;;;10.90;;
3755;SDS011;1893;52.526;13.360;2022-12-13T04:06:06;21.80;;;10.90;;
3755;SDS011;1893;52.526;13.360;2022-12-13T04:08:33;22.60;;;11.88;;
3755;SDS011;1893;52.526;13.360;2022-12-13T04:10:59;22.17;;;12.30;;
3755;SDS011;1893;52.526;13.360;2022-12-13T04:13:44;26.02;;;11.45;;
3755;SDS011;1893;52.526;13.360;2022-12-13T04:16:10;29.10;;;12.10;;
3755;SDS011;1893;52.526;13.360;2022-12-13T04:18:36;25.87;;;12.70;;
3755;SDS011;1893;52.526;13.360;2022-12-13T04:21:01;18.53;;;10.63;;
3755;SDS011;1893;52.526;13.360;2022-12-13T04:23:27;20.17;;;10.43;;
3755;SDS011;1893;52.526;13.360;2022-12-13T04:25:52;21.77;;;10.37;;
3755;SDS011;1893;52.526;13.360;2022-12-13T04:28:18;18.60;;;10.70;;
3755;SDS011;1893;52.526;13.360;2022-12-13T04:30:44;19.77;;;10.37;;
3755;SDS011;1893;52.526;13.360;2022-12-13T04:33:09;23.73;;;11.83;;
3755;SDS011;1893;52.526;13.360;2022-12-13T04:35:35;23.00;;;11.50;;
3755;SDS011;1893;52.526;13.360;2022-12-13T04:38:00;24.07;;;10.90;;
3755;SDS011;1893;52.526;13.360;2022-12-13T04:40:26;23.40;;;12.60;;
3755;SDS011;1893;52.526;13.360;2022-12-13T04:42:52;22.07;;;10.53;;
3755;SDS011;1893;52.526;13.360;2022-12-13T04:45:19;19.90;;;11.07;;
3755;SDS011;1893;52.526;13.360;2022-12-13T04:47:45;26.13;;;12.32;;
3755;SDS011;1893;52.526;13.360;2022-12-13T04:50:11;17.63;;;10.53;;
3755;SDS011;1893;52.526;13.360;2022-12-13T04:52:37;21.63;;;11.17;;
3755;SDS011;1893;52.526;13.360;2022-12-13T04:55:03;23.77;;;10.07;;
3755;SDS011;1893;52.526;13.360;2022-12-13T04:57:29;20.10;;;10.65;;
3755;SDS011;1893;52.526;13.360;2022-12-13T04:59:55;20.07;;;9.23;;
3755;SDS011;1893;52.526;13.360;2022-12-13T05:02:21;20.50;;;10.00;;
3755;SDS011;1893;52.526;13.360;2022-12-13T05:04:47;18.60;;;10.17;;
3755;SDS011;1893;52.526;13.360;2022-12-13T05:07:13;19.45;;;11.25;;
3755;SDS011;1893;52.526;13.360;2022-12-13T05:09:39;24.53;;;12.83;;
3755;SDS011;1893;52.526;13.360;2022-12-13T05:12:04;23.90;;;12.30;;
3755;SDS011;1893;52.526;13.360;2022-12-13T05:14:30;24.13;;;10.63;;
3755;SDS011;1893;52.526;13.360;2022-12-13T05:16:57;22.50;;;9.57;;
3755;SDS011;1893;52.526;13.360;2022-12-13T05:19:23;23.23;;;10.60;;
3755;SDS011;1893;52.526;13.360;2022-12-13T05:21:49;21.20;;;10.27;;
3755;SDS011;1893;52.526;13.360;2022-12-13T05:24:14;22.50;;;9.80;;
3755;SDS011;1893;52.526;13.360;2022-12-13T05:26:40;22.58;;;10.07;;
3755;SDS011;1893;52.526;13.360;2022-12-13T05:29:06;20.90;;;10.83;;
3755;SDS011;1893;52.526;13.360;2022-12-13T05:31:32;25.73;;;11.63;;
3755;SDS011;1893;52.526;13.360;2022-12-13T05:33:57;24.50;;;10.60;;
3755;SDS011;1893;52.526;13.360;2022-12-13T05:36:23;20.17;;;11.13;;
3755;SDS011;1893;52.526;13.360;2022-12-13T05:38:49;21.00;;;10.75;;
3755;SDS011;1893;52.526;13.360;2022-12-13T05:41:16;22.25;;;11.82;;
3755;SDS011;1893;52.526;13.360;2022-12-13T05:43:44;17.20;;;9.30;;
3755;SDS011;1893;52.526;13.360;2022-12-13T05:46:10;20.70;;;10.10;;
3755;SDS011;1893;52.526;13.360;2022-12-13T05:48:36;18.33;;;10.45;;
3755;SDS011;1893;52.526;13.360;2022-12-13T05:51:02;24.87;;;11.77;;
3755;SDS011;1893;52.526;13.360;2022-12-13T05:53:28;26.83;;;12.40;;
3755;SDS011;1893;52.526;13.360;2022-12-13T05:55:54;18.13;;;9.03;;
3755;SDS011;1893;52.526;13.360;2022-12-13T05:58:24;20.63;;;10.70;;
3755;SDS011;1893;52.526;13.360;2022-12-13T06:00:49;21.20;;;10.97;;
3755;SDS011;1893;52.526;13.360;2022-12-13T06:03:15;27.73;;;11.30;;
3755;SDS011;1893;52.526;13.360;2022-12-13T06:05:40;21.50;;;11.33;;
3755;SDS011;1893;52.526;13.360;2022-12-13T06:08:07;23.23;;;12.05;;
3755;SDS011;1893;52.526;13.360;2022-12-13T06:10:33;25.40;;;11.40;;
3755;SDS011;1893;52.526;13.360;2022-12-13T06:12:59;27.60;;;11.27;;
3755;SDS011;1893;52.526;13.360;2022-12-13T06:15:24;24.53;;;12.13;;
3755;SDS011;1893;52.526;13.360;2022-12-13T06:17:50;22.90;;;12.40;;
3755;SDS011;1893;52.526;13.360;2022-12-13T06:20:16;22.10;;;12.40;;
3755;SDS011;1893;52.526;13.360;2022-12-13T06:22:42;30.55;;;11.85;;
3755;SDS011;1893;52.526;13.360;2022-12-13T06:25:08;20.93;;;11.47;;
3755;SDS011;1893;52.526;13.360;2022-12-13T06:27:34;23.27;;;12.50;;
3755;SDS011;1893;52.526;13.360;2022-12-13T06:30:00;23.13;;;11.87;;
3755;SDS011;1893;52.526;13.360;2022-12-13T06:32:25;28.93;;;11.90;;
3755;SDS011;1893;52.526;13.360;2022-12-13T06:34:51;27.63;;;11.80;;
3755;SDS011;1893;52.526;13.360;2022-12-13T06:37:16;26.43;;;11.17;;
3755;SDS011;1893;52.526;13.360;2022-12-13T06:39:42;23.60;;;11.70;;
3755;SDS011;1893;52.526;13.360;2022-12-13T06:42:13;21.57;;;12.30;;
3755;SDS011;1893;52.526;13.360;2022-12-13T06:44:40;21.90;;;11.88;;
3755;SDS011;1893;52.526;13.360;2022-12-13T06:47:06;22.70;;;12.13;;
3755;SDS011;1893;52.526;13.360;2022-12-13T06:49:32;27.20;;;12.93;;
3755;SDS011;1893;52.526;13.360;2022-12-13T06:51:57;27.17;;;13.70;;
3755;SDS011;1893;52.526;13.360;2022-12-13T06:54:23;31.47;;;13.20;;
3755;SDS011;1893;52.526;13.360;2022-12-13T06:56:49;24.80;;;13.30;;
3755;SDS011;1893;52.526;13.360;2022-12-13T06:59:14;26.40;;;12.67;;
3755;SDS011;1893;52.526;13.360;2022-12-13T07:01:40;29.53;;;13.33;;
3755;SDS011;1893;52.526;13.360;2022-12-13T07:04:05;32.77;;;13.50;;
3755;SDS011;1893;52.526;13.360;2022-12-13T07:06:33;31.95;;;13.90;;
3755;SDS011;1893;52.526;13.360;2022-12-13T07:08:59;32.73;;;14.77;;
3755;SDS011;1893;52.526;13.360;2022-12-13T07:11:25;30.87;;;13.30;;
3755;SDS011;1893;52.526;13.360;2022-12-13T07:13:53;27.65;;;13.82;;
3755;SDS011;1893;52.526;13.360;2022-12-13T07:16:19;31.35;;;15.40;;
3755;SDS011;1893;52.526;13.360;2022-12-13T07:18:46;33.10;;;14.38;;
3755;SDS011;1893;52.526;13.360;2022-12-13T07:21:12;30.53;;;14.50;;
3755;SDS011;1893;52.526;13.360;2022-12-13T07:23:39;31.80;;;13.85;;
3755;SDS011;1893;52.526;13.360;2022-12-13T07:26:05;25.98;;;13.75;;
3755;SDS011;1893;52.526;13.360;2022-12-13T07:28:32;31.38;;;14.63;;
3755;SDS011;1893;52.526;13.360;2022-12-13T07:31:00;33.08;;;15.50;;
3755;SDS011;1893;52.526;13.360;2022-12-13T07:33:27;35.15;;;16.60;;
3755;SDS011;1893;52.526;13.360;2022-12-13T07:36:00;28.88;;;13.35;;
3755;SDS011;1893;52.526;13.360;2022-12-13T07:38:33;29.85;;;13.60;;
3755;SDS011;1893;52.526;13.360;2022-12-13T07:41:00;28.33;;;15.98;;
3755;SDS011;1893;52.526;13.360;2022-12-13T07:43:26;32.13;;;15.60;;
3755;SDS011;1893;52.526;13.360;2022-12-13T07:45:53;32.97;;;14.70;;
3755;SDS011;1893;52.526;13.360;2022-12-13T07:48:21;31.90;;;17.13;;
3755;SDS011;1893;52.526;13.360;2022-12-13T07:50:47;57.57;;;17.20;;
3755;SDS011;1893;52.526;13.360;2022-12-13T07:53:13;36.77;;;17.03;;
3755;SDS011;1893;52.526;13.360;2022-12-13T07:55:38;40.47;;;16.93;;
3755;SDS011;1893;52.526;13.360;2022-12-13T07:58:08;31.10;;;17.23;;
3755;SDS011;1893;52.526;13.360;2022-12-13T08:00:36;31.35;;;15.00;;
3755;SDS011;1893;52.526;13.360;2022-12-13T08:03:02;35.70;;;16.40;;
3755;SDS011;1893;52.526;13.360;2022-12-13T08:05:29;34.05;;;16.45;;
3755;SDS011;1893;52.526;13.360;2022-12-13T08:07:55;32.87;;;16.63;;
3755;SDS011;1893;52.526;13.360;2022-12-13T08:10:21;30.07;;;16.03;;
3755;SDS011;1893;52.526;13.360;2022-12-13T08:12:46;39.83;;;18.10;;
3755;SDS011;1893;52.526;13.360;2022-12-13T08:15:14;33.72;;;16.75;;
3755;SDS011;1893;52.526;13.360;2022-12-13T08:17:39;37.83;;;15.90;;
3755;SDS011;1893;52.526;13.360;2022-12-13T08:20:06;36.78;;;17.15;;
3755;SDS011;1893;52.526;13.360;2022-12-13T08:22:32;31.73;;;16.87;;
3755;SDS011;1893;52.526;13.360;2022-12-13T08:24:57;33.87;;;16.27;;
3755;SDS011;1893;52.526;13.360;2022-12-13T08:27:23;35.10;;;16.83;;
3755;SDS011;1893;52.526;13.360;2022-12-13T08:29:48;34.17;;;16.83;;
3755;SDS011;1893;52.526;13.360;2022-12-13T08:32:14;30.33;;;15.57;;
3755;SDS011;1893;52.526;13.360;2022-12-13T08:34:40;30.60;;;15.33;;
3755;SDS011;1893;52.526;13.360;2022-12-13T08:37:05;41.60;;;17.30;;
3755;SDS011;1893;52.526;13.360;2022-12-13T08:39:32;31.65;;;15.63;;
3755;SDS011;1893;52.526;13.360;2022-12-13T08:42:02;31.95;;;14.77;;
3755;SDS011;1893;52.526;13.360;2022-12-13T08:44:29;27.98;;;15.95;;
3755;SDS011;1893;52.526;13.360;2022-12-13T08:46:54;29.47;;;15.57;;
3755;SDS011;1893;52.526;13.360;2022-12-13T08:49:20;31.37;;;15.77;;
3755;SDS011;1893;52.526;13.360;2022-12-13T08:51:46;31.27;;;14.67;;
3755;SDS011;1893;52.526;13.360;2022-12-13T08:54:11;37.03;;;16.63;;
3755;SDS011;1893;52.526;13.360;2022-12-13T08:56:37;31.10;;;15.50;;
3755;SDS011;1893;52.526;13.360;2022-12-13T08:59:02;32.67;;;16.17;;
3755;SDS011;1893;52.526;13.360;2022-12-13T09:01:28;35.73;;;17.20;;
3755;SDS011;1893;52.526;13.360;2022-12-13T09:03:54;34.23;;;17.13;;
3755;SDS011;1893;52.526;13.360;2022-12-13T09:06:20;31.97;;;14.70;;
3755;SDS011;1893;52.526;13.360;2022-12-13T09:08:45;32.40;;;15.93;;
3755;SDS011;1893;52.526;13.360;2022-12-13T09:11:11;31.07;;;15.27;;
3755;SDS011;1893;52.526;13.360;2022-12-13T09:13:37;29.43;;;14.27;;
3755;SDS011;1893;52.526;13.360;2022-12-13T09:16:04;36.22;;;15.75;;
3755;SDS011;1893;52.526;13.360;2022-12-13T09:18:36;33.30;;;15.93;;
3755;SDS011;1893;52.526;13.360;2022-12-13T09:21:09;38.63;;;16.83;;
3755;SDS011;1893;52.526;13.360;2022-12-13T09:23:37;34.67;;;16.95;;
3755;SDS011;1893;52.526;13.360;2022-12-13T09:26:05;35.85;;;16.30;;
3755;SDS011;1893;52.526;13.360;2022-12-13T09:28:32;34.60;;;15.07;;
3755;SDS011;1893;52.526;13.360;2022-12-13T09:30:58;33.05;;;15.45;;
3755;SDS011;1893;52.526;13.360;2022-12-13T09:33:24;28.07;;;15.73;;
3755;SDS011;1893;52.526;13.360;2022-12-13T09:35:50;30.53;;;16.10;;
3755;SDS011;1893;52.526;13.360;2022-12-13T09:38:16;32.35;;;15.38;;
3755;SDS011;1893;52.526;13.360;2022-12-13T09:40:42;31.63;;;16.33;;
3755;SDS011;1893;52.526;13.360;2022-12-13T09:43:11;31.73;;;15.82;;
3755;SDS011;1893;52.526;13.360;2022-12-13T09:45:46;30.77;;;16.83;;
3755;SDS011;1893;52.526;13.360;2022-12-13T09:48:17;33.95;;;16.73;;
3755;SDS011;1893;52.526;13.360;2022-12-13T09:50:45;33.22;;;15.85;;
3755;SDS011;1893;52.526;13.360;2022-12-13T09:53:12;34.95;;;17.58;;
3755;SDS011;1893;52.526;13.360;2022-12-13T09:55:41;32.83;;;16.40;;
3755;SDS011;1893;52.526;13.360;2022-12-13T09:58:28;32.80;;;17.48;;
3755;SDS011;1893;52.526;13.360;2022-12-13T10:00:56;33.85;;;16.20;;
3755;SDS011;1893;52.526;13.360;2022-12-13T10:03:23;34.17;;;16.95;;
3755;SDS011;1893;52.526;13.360;2022-12-13T10:05:56;40.85;;;17.23;;
3755;SDS011;1893;52.526;13.360;2022-12-13T10:08:38;33.72;;;17.00;;
3755;SDS011;1893;52.526;13.360;2022-12-13T10:11:11;32.25;;;17.10;;
3755;SDS011;1893;52.526;13.360;2022-12-13T10:19:15;36.67;;;16.30;;
3755;SDS011;1893;52.526;13.360;2022-12-13T10:21:44;34.60;;;17.20;;
3755;SDS011;1893;52.526;13.360;2022-12-13T10:24:12;38.10;;;18.13;;
3755;SDS011;1893;52.526;13.360;2022-12-13T10:26:43;27.20;;;15.10;;
3755;SDS011;1893;52.526;13.360;2022-12-13T10:29:09;32.20;;;15.70;;
3755;SDS011;1893;52.526;13.360;2022-12-13T10:31:43;29.05;;;13.35;;
3755;SDS011;1893;52.526;13.360;2022-12-13T10:34:21;25.70;;;12.68;;
3755;SDS011;1893;52.526;13.360;2022-12-13T10:36:54;24.50;;;13.23;;
3755;SDS011;1893;52.526;13.360;2022-12-13T10:39:39;21.42;;;11.90;;
3755;SDS011;1893;52.526;13.360;2022-12-13T10:42:13;23.52;;;13.35;;
3755;SDS011;1893;52.526;13.360;2022-12-13T10:44:43;25.35;;;12.85;;
3755;SDS011;1893;52.526;13.360;2022-12-13T10:49:48;27.02;;;12.57;;
3755;SDS011;1893;52.526;13.360;2022-12-13T10:52:31;25.95;;;13.15;;
3755;SDS011;1893;52.526;13.360;2022-12-13T10:55:02;25.58;;;11.63;;
3755;SDS011;1893;52.526;13.360;2022-12-13T10:57:30;24.50;;;12.60;;
3755;SDS011;1893;52.526;13.360;2022-12-13T10:59:56;16.88;;;9.02;;
3755;SDS011;1893;52.526;13.360;2022-12-13T11:02:30;21.30;;;10.30;;
3755;SDS011;1893;52.526;13.360;2022-12-13T11:04:59;22.88;;;10.48;;
3755;SDS011;1893;52.526;13.360;2022-12-13T11:07:48;21.25;;;10.32;;
3755;SDS011;1893;52.526;13.360;2022-12-13T11:10:24;24.55;;;11.60;;
3755;SDS011;1893;52.526;13.360;2022-12-13T11:12:54;20.38;;;10.85;;
3755;SDS011;1893;52.526;13.360;2022-12-13T11:15:25;22.23;;;11.07;;
3755;SDS011;1893;52.526;13.360;2022-12-13T11:18:06;25.80;;;12.10;;
3755;SDS011;1893;52.526;13.360;2022-12-13T11:20:47;21.95;;;11.05;;
3755;SDS011;1893;52.526;13.360;2022-12-13T11:23:25;19.27;;;9.60;;
3755;SDS011;1893;52.526;13.360;2022-12-13T11:26:07;19.33;;;10.57;;
3755;SDS011;1893;52.526;13.360;2022-12-13T11:31:15;23.67;;;12.10;;
3755;SDS011;1893;52.526;13.360;2022-12-13T11:36:24;21.33;;;11.33;;
3755;SDS011;1893;52.526;13.360;2022-12-13T11:39:44;22.60;;;13.00;;
3755;SDS011;1893;52.526;13.360;2022-12-13T11:47:28;19.52;;;10.73;;
3755;SDS011;1893;52.526;13.360;2022-12-13T11:50:00;29.08;;;13.68;;
3755;SDS011;1893;52.526;13.360;2022-12-13T11:52:35;26.98;;;13.00;;
3755;SDS011;1893;52.526;13.360;2022-12-13T11:55:17;20.73;;;12.13;;
3755;SDS011;1893;52.526;13.360;2022-12-13T12:00:54;17.23;;;10.52;;
3755;SDS011;1893;52.526;13.360;2022-12-13T12:08:59;25.23;;;12.45;;
3755;SDS011;1893;52.526;13.360;2022-12-13T12:11:34;19.10;;;10.20;;
3755;SDS011;1893;52.526;13.360;2022-12-13T12:16:57;20.00;;;11.07;;
3755;SDS011;1893;52.526;13.360;2022-12-13T12:19:37;22.30;;;10.38;;
3755;SDS011;1893;52.526;13.360;2022-12-13T12:41:27;19.67;;;9.48;;
3755;SDS011;1893;52.526;13.360;2022-12-13T12:46:52;22.38;;;10.80;;
3755;SDS011;1893;52.526;13.360;2022-12-13T12:54:47;26.52;;;12.70;;
3755;SDS011;1893;52.526;13.360;2022-12-13T13:02:56;20.73;;;10.73;;
3755;SDS011;1893;52.526;13.360;2022-12-13T13:05:32;23.10;;;12.38;;
3755;SDS011;1893;52.526;13.360;2022-12-13T13:08:14;23.90;;;11.82;;
3755;SDS011;1893;52.526;13.360;2022-12-13T13:10:46;22.85;;;12.98;;
3755;SDS011;1893;52.526;13.360;2022-12-13T13:16:36;21.27;;;11.93;;
3755;SDS011;1893;52.526;13.360;2022-12-13T13:19:04;20.98;;;;;
3755;SDS011;1893;52.526;13.360;2022-12-13T13:21:48;21.58;;;11.40;;
3755;SDS011;1893;52.526;13.360;2022-12-13T13:24:20;20.15;;;11.75;;
3755;SDS011;1893;52.526;13.360;2022-12-13T13:26:57;26.65;;;11.55;;
3755;SDS011;1893;52.526;13.360;2022-12-13T13:29:43;16.73;;;10.10;;
3755;SDS011;1893;52.526;13.360;2022-12-13T13:42:36;18.40;;;10.73;;
3755;SDS011;1893;52.526;13.360;2022-12-13T13:45:53;19.98;;;9.90;;
3755;SDS011;1893;52.526;13.360;2022-12-13T14:26:30;17.30;;;8.80;;
3755;SDS011;1893;52.526;13.360;2022-12-13T14:29:16;16.40;;;9.45;;
3755;SDS011;1893;52.526;13.360;2022-12-13T14:31:47;20.48;;;9.00;;
3755;SDS011;1893;52.526;13.360;2022-12-13T14:34:21;15.90;;;8.52;;
3755;SDS011;1893;52.526;13.360;2022-12-13T14:36:59;18.85;;;9.55;;
3755;SDS011;1893;52.526;13.360;2022-12-13T14:39:27;16.55;;;8.77;;
3755;SDS011;1893;52.526;13.360;2022-12-13T14:41:54;24.63;;;9.40;;
3755;SDS011;1893;52.526;13.360;2022-12-13T14:47:09;19.10;;;9.73;;
3755;SDS011;1893;52.526;13.360;2022-12-13T14:49:37;15.68;;;9.20;;
3755;SDS011;1893;52.526;13.360;2022-12-13T14:52:06;16.45;;;9.88;;
3755;SDS011;1893;52.526;13.360;2022-12-13T14:54:44;21.20;;;10.18;;
3755;SDS011;1893;52.526;13.360;2022-12-13T14:57:14;22.25;;;10.73;;
3755;SDS011;1893;52.526;13.360;2022-12-13T14:59:49;16.77;;;9.00;;
3755;SDS011;1893;52.526;13.360;2022-12-13T15:02:18;15.85;;;7.65;;
3755;SDS011;1893;52.526;13.360;2022-12-13T15:04:53;19.05;;;8.23;;
3755;SDS011;1893;52.526;13.360;2022-12-13T15:07:27;20.40;;;9.15;;
3755;SDS011;1893;52.526;13.360;2022-12-13T15:10:19;19.92;;;8.82;;
3755;SDS011;1893;52.526;13.360;2022-12-13T15:12:49;17.02;;;8.68;;
3755;SDS011;1893;52.526;13.360;2022-12-13T15:15:23;17.63;;;8.93;;
3755;SDS011;1893;52.526;13.360;2022-12-13T15:18:05;20.27;;;11.10;;
3755;SDS011;1893;52.526;13.360;2022-12-13T15:20:37;20.35;;;10.02;;
3755;SDS011;1893;52.526;13.360;2022-12-13T15:23:04;23.80;;;10.88;;
3755;SDS011;1893;52.526;13.360;2022-12-13T15:25:36;25.42;;;10.68;;
3755;SDS011;1893;52.526;13.360;2022-12-13T15:28:03;19.63;;;11.30;;
3755;SDS011;1893;52.526;13.360;2022-12-13T15:30:30;23.42;;;10.75;;
3755;SDS011;1893;52.526;13.360;2022-12-13T15:33:17;21.42;;;10.23;;
3755;SDS011;1893;52.526;13.360;2022-12-13T15:35:47;20.85;;;10.88;;
3755;SDS011;1893;52.526;13.360;2022-12-13T15:38:15;20.50;;;11.40;;
3755;SDS011;1893;52.526;13.360;2022-12-13T15:40:47;22.65;;;10.73;;
3755;SDS011;1893;52.526;13.360;2022-12-13T15:43:17;19.80;;;10.68;;
3755;SDS011;1893;52.526;13.360;2022-12-13T15:45:46;19.95;;;10.48;;
3755;SDS011;1893;52.526;13.360;2022-12-13T15:50:49;22.00;;;12.02;;
3755;SDS011;1893;52.526;13.360;2022-12-13T15:53:25;18.80;;;10.70;;
3755;SDS011;1893;52.526;13.360;2022-12-13T15:55:52;19.45;;;10.82;;
3755;SDS011;1893;52.526;13.360;2022-12-13T15:58:28;18.83;;;9.87;;
3755;SDS011;1893;52.526;13.360;2022-12-13T16:00:57;28.52;;;12.05;;
3755;SDS011;1893;52.526;13.360;2022-12-13T16:03:29;21.17;;;10.48;;
3755;SDS011;1893;52.526;13.360;2022-12-13T16:06:06;21.58;;;10.50;;
3755;SDS011;1893;52.526;13.360;2022-12-13T16:08:34;20.45;;;10.32;;
3755;SDS011;1893;52.526;13.360;2022-12-13T16:11:03;23.48;;;10.30;;
3755;SDS011;1893;52.526;13.360;2022-12-13T16:13:31;25.65;;;12.02;;
3755;SDS011;1893;52.526;13.360;2022-12-13T16:18:51;27.98;;;11.73;;
3755;SDS011;1893;52.526;13.360;2022-12-13T16:21:21;28.15;;;12.48;;
3755;SDS011;1893;52.526;13.360;2022-12-13T16:23:48;25.35;;;11.02;;
3755;SDS011;1893;52.526;13.360;2022-12-13T16:26:13;26.30;;;11.43;;
3755;SDS011;1893;52.526;13.360;2022-12-13T16:28:44;22.73;;;11.70;;
3755;SDS011;1893;52.526;13.360;2022-12-13T16:31:13;24.17;;;13.02;;
3755;SDS011;1893;52.526;13.360;2022-12-13T16:33:41;23.30;;;12.70;;
3755;SDS011;1893;52.526;13.360;2022-12-13T16:36:08;23.55;;;12.77;;
3755;SDS011;1893;52.526;13.360;2022-12-13T16:38:35;22.20;;;12.95;;
3755;SDS011;1893;52.526;13.360;2022-12-13T16:41:01;23.63;;;12.30;;
3755;SDS011;1893;52.526;13.360;2022-12-13T16:43:27;27.20;;;12.13;;
3755;SDS011;1893;52.526;13.360;2022-12-13T16:45:54;29.58;;;11.88;;
3755;SDS011;1893;52.526;13.360;2022-12-13T16:48:20;28.27;;;14.43;;
3755;SDS011;1893;52.526;13.360;2022-12-13T16:50:47;30.23;;;13.57;;
3755;SDS011;1893;52.526;13.360;2022-12-13T16:53:14;26.35;;;14.05;;
3755;SDS011;1893;52.526;13.360;2022-12-13T16:55:40;30.90;;;14.05;;
3755;SDS011;1893;52.526;13.360;2022-12-13T16:58:08;28.93;;;14.00;;
3755;SDS011;1893;52.526;13.360;2022-12-13T17:00:39;25.67;;;15.43;;
3755;SDS011;1893;52.526;13.360;2022-12-13T17:03:06;27.13;;;14.52;;
3755;SDS011;1893;52.526;13.360;2022-12-13T17:05:33;28.15;;;14.10;;
3755;SDS011;1893;52.526;13.360;2022-12-13T17:08:00;30.15;;;14.30;;
3755;SDS011;1893;52.526;13.360;2022-12-13T17:10:26;25.40;;;13.13;;
3755;SDS011;1893;52.526;13.360;2022-12-13T17:12:52;26.58;;;12.80;;
3755;SDS011;1893;52.526;13.360;2022-12-13T17:15:18;28.23;;;14.15;;
3755;SDS011;1893;52.526;13.360;2022-12-13T17:17:44;27.47;;;14.00;;
3755;SDS011;1893;52.526;13.360;2022-12-13T17:20:12;25.65;;;13.48;;